Time;durP1;ratioP1;P1;durP2;ratioP2;P2;SDS_P1;SDS_P2;PMS_P1;PMS_P2;Temp;Humidity;BMP_temperature;BMP_pressure;BME280_temperature;BME280_humidity;BME280_pressure;Samples;Min_cycle;Max_cycle;Signal;HPM_P1;HPM_P2
2022/05/22 00:02:09;;;;;;;2.42;0.90;;;;;;;;;;4999999;28;20867;-84
2022/05/22 00:04:35;;;;;;;1.55;1.10;;;;;;;;;;5012993;28;20420;-84
2022/05/22 00:07:01;;;;;;;1.98;1.00;;;;;;;;;;5012321;28;20384;-84
2022/05/22 00:09:30;;;;;;;1.73;1.08;;;;;;;;;;5012404;28;20766;-84
2022/05/22 00:11:57;;;;;;;1.83;1.10;;;;;;;;;;5012231;28;20419;-86
2022/05/22 00:14:25;;;;;;;1.33;1.00;;;;;;;;;;5006570;28;20397;-84
2022/05/22 00:16:51;;;;;;;1.35;1.00;;;;;;;;;;5010160;28;20798;-83
2022/05/22 00:19:19;;;;;;;1.08;0.80;;;;;;;;;;5010148;28;20396;-83
2022/05/22 00:21:45;;;;;;;1.70;0.90;;;;;;;;;;5011469;28;20396;-85
2022/05/22 00:24:12;;;;;;;1.67;0.90;;;;;;;;;;5014139;28;20459;-84
2022/05/22 00:26:38;;;;;;;2.70;0.80;;;;;;;;;;5014365;28;20391;-86
2022/05/22 00:29:05;;;;;;;1.17;0.90;;;;;;;;;;5014052;28;20395;-84
2022/05/22 00:31:31;;;;;;;1.90;1.05;;;;;;;;;;5014659;28;20377;-84
2022/05/22 00:33:57;;;;;;;2.63;0.80;;;;;;;;;;5014920;28;20439;-84
2022/05/22 00:36:22;;;;;;;1.23;0.77;;;;;;;;;;5015848;28;20408;-84
2022/05/22 00:38:48;;;;;;;1.13;0.85;;;;;;;;;;5015824;28;20395;-85
2022/05/22 00:41:15;;;;;;;1.30;0.80;;;;;;;;;;5015670;28;20437;-85
2022/05/22 00:43:46;;;;;;;1.77;0.90;;;;;;;;;;5015804;28;20380;-84
2022/05/22 00:46:13;;;;;;;1.63;0.90;;;;;;;;;;5015958;28;20451;-84
2022/05/22 00:48:41;;;;;;;1.67;0.82;;;;;;;;;;5014595;28;20385;-85
2022/05/22 00:51:11;;;;;;;1.15;0.95;;;;;;;;;;5013241;28;20388;-84
2022/05/22 00:53:40;;;;;;;1.17;0.98;;;;;;;;;;5014641;28;20381;-84
2022/05/22 00:56:08;;;;;;;2.67;1.00;;;;;;;;;;5013358;28;20392;-84
2022/05/22 00:58:35;;;;;;;1.10;0.80;;;;;;;;;;5015465;28;20897;-86
2022/05/22 01:01:01;;;;;;;2.20;0.82;;;;;;;;;;5015510;28;20384;-83
2022/05/22 01:03:28;;;;;;;1.98;0.90;;;;;;;;;;5015342;28;20484;-83
2022/05/22 01:05:56;;;;;;;1.37;1.00;;;;;;;;;;5015226;28;20439;-83
2022/05/22 01:08:22;;;;;;;1.20;1.00;;;;;;;;;;5015299;28;20381;-84
2022/05/22 01:10:50;;;;;;;1.95;1.05;;;;;;;;;;5015342;28;20373;-84
2022/05/22 01:13:18;;;;;;;2.25;0.98;;;;;;;;;;5015252;28;20388;-83
2022/05/22 01:15:45;;;;;;;1.00;0.80;;;;;;;;;;5013927;28;20720;-83
2022/05/22 01:18:11;;;;;;;1.75;1.00;;;;;;;;;;5015145;28;20381;-82
2022/05/22 01:20:37;;;;;;;1.83;1.00;;;;;;;;;;5014961;28;20933;-83
2022/05/22 01:23:03;;;;;;;1.80;1.00;;;;;;;;;;5015134;28;20404;-84
2022/05/22 01:25:29;;;;;;;1.30;0.80;;;;;;;;;;5015019;28;20762;-83
2022/05/22 01:27:55;;;;;;;1.17;0.80;;;;;;;;;;5015012;28;20379;-83
2022/05/22 01:30:24;;;;;;;2.50;1.10;;;;;;;;;;5014830;28;20452;-83
2022/05/22 01:32:50;;;;;;;1.88;1.10;;;;;;;;;;5017121;28;20384;-84
2022/05/22 01:35:18;;;;;;;1.38;0.90;;;;;;;;;;5014685;28;20388;-84
2022/05/22 01:37:44;;;;;;;1.67;0.90;;;;;;;;;;5014767;28;20388;-84
2022/05/22 01:40:10;;;;;;;1.27;0.98;;;;;;;;;;5014924;28;20384;-84
2022/05/22 01:42:37;;;;;;;1.60;0.80;;;;;;;;;;5014566;28;20392;-83
2022/05/22 01:45:04;;;;;;;1.60;0.90;;;;;;;;;;5014637;28;20451;-84
2022/05/22 01:47:32;;;;;;;1.20;0.90;;;;;;;;;;5013560;28;20450;-82
2022/05/22 01:49:58;;;;;;;1.00;0.80;;;;;;;;;;5011256;28;20408;-83
2022/05/22 01:52:24;;;;;;;1.88;0.90;;;;;;;;;;5012219;28;20413;-83
2022/05/22 01:54:50;;;;;;;1.92;0.90;;;;;;;;;;5013246;28;20383;-83
2022/05/22 01:57:16;;;;;;;1.40;0.90;;;;;;;;;;5009756;28;20878;-83
2022/05/22 01:59:42;;;;;;;2.17;0.90;;;;;;;;;;5014589;28;20472;-83
2022/05/22 02:02:08;;;;;;;1.45;0.95;;;;;;;;;;5026351;28;20726;-82
2022/05/22 02:04:34;;;;;;;1.53;0.97;;;;;;;;;;5013739;28;20507;-85
2022/05/22 02:09:45;;;;;;;0.90;0.70;;;;;;;;;;5014338;28;20452;-82
2022/05/22 02:12:11;;;;;;;1.83;1.00;;;;;;;;;;5014013;28;20377;-83
2022/05/22 02:14:37;;;;;;;1.33;0.85;;;;;;;;;;5014195;28;20377;-83
2022/05/22 02:17:03;;;;;;;1.10;0.98;;;;;;;;;;5014026;28;20901;-83
2022/05/22 02:19:29;;;;;;;1.48;1.00;;;;;;;;;;5014263;28;20384;-83
2022/05/22 02:21:55;;;;;;;1.17;0.87;;;;;;;;;;5013704;28;20467;-83
2022/05/22 02:24:21;;;;;;;2.10;1.00;;;;;;;;;;5014026;28;20409;-83
2022/05/22 02:26:47;;;;;;;1.08;0.90;;;;;;;;;;5014273;28;20479;-83
2022/05/22 02:29:13;;;;;;;1.50;0.82;;;;;;;;;;5013772;28;20435;-84
2022/05/22 02:31:39;;;;;;;1.55;1.00;;;;;;;;;;5012400;28;20866;-84
2022/05/22 02:34:05;;;;;;;1.33;0.90;;;;;;;;;;5013703;28;20493;-83
2022/05/22 02:36:31;;;;;;;2.30;1.00;;;;;;;;;;5013627;28;20419;-86
2022/05/22 02:38:57;;;;;;;0.95;0.85;;;;;;;;;;5013638;28;20393;-83
2022/05/22 02:41:25;;;;;;;2.15;0.80;;;;;;;;;;5013510;28;20384;-83
2022/05/22 02:43:51;;;;;;;1.00;0.80;;;;;;;;;;5012891;28;20747;-83
2022/05/22 02:46:17;;;;;;;1.50;1.02;;;;;;;;;;5013415;28;20916;-83
2022/05/22 02:48:43;;;;;;;1.15;0.80;;;;;;;;;;5010245;28;20858;-83
2022/05/22 02:51:11;;;;;;;1.48;1.00;;;;;;;;;;5013208;28;20388;-82
2022/05/22 02:53:37;;;;;;;2.55;1.10;;;;;;;;;;5008842;28;20377;-85
2022/05/22 02:56:10;;;;;;;1.92;0.93;;;;;;;;;;5013370;28;20380;-82
2022/05/22 02:58:37;;;;;;;1.30;1.00;;;;;;;;;;5013277;28;20480;-83
2022/05/22 03:01:03;;;;;;;1.45;1.02;;;;;;;;;;5013278;28;20425;-82
2022/05/22 03:03:29;;;;;;;1.00;0.80;;;;;;;;;;5013131;28;20778;-83
2022/05/22 03:08:40;;;;;;;1.80;0.95;;;;;;;;;;5013149;28;20423;-83
2022/05/22 03:11:06;;;;;;;1.08;0.95;;;;;;;;;;5013203;28;20385;-84
2022/05/22 03:13:33;;;;;;;1.35;0.90;;;;;;;;;;5012958;28;20937;-82
2022/05/22 03:15:59;;;;;;;0.90;0.70;;;;;;;;;;5013107;28;20846;-84
2022/05/22 03:18:25;;;;;;;1.33;0.90;;;;;;;;;;5013013;28;20428;-82
2022/05/22 03:20:51;;;;;;;1.70;0.90;;;;;;;;;;5012826;28;20385;-83
2022/05/22 03:23:17;;;;;;;1.10;0.90;;;;;;;;;;5010319;28;20766;-84
2022/05/22 03:25:44;;;;;;;2.85;1.00;;;;;;;;;;5012762;28;20924;-84
2022/05/22 03:28:10;;;;;;;1.10;0.93;;;;;;;;;;5012156;28;20389;-83
2022/05/22 03:30:36;;;;;;;2.07;0.93;;;;;;;;;;5011339;28;20767;-83
2022/05/22 03:33:02;;;;;;;1.73;1.10;;;;;;;;;;5012719;28;20396;-84
2022/05/22 03:35:29;;;;;;;2.05;1.20;;;;;;;;;;5012639;28;20916;-83
2022/05/22 03:37:55;;;;;;;2.88;1.20;;;;;;;;;;5013208;28;20479;-84
2022/05/22 03:40:21;;;;;;;1.60;0.95;;;;;;;;;;5012866;28;20495;-83
2022/05/22 03:42:47;;;;;;;1.20;1.10;;;;;;;;;;5012365;28;20877;-83
2022/05/22 03:45:13;;;;;;;1.95;1.05;;;;;;;;;;5012699;28;20511;-84
2022/05/22 03:47:40;;;;;;;1.77;1.20;;;;;;;;;;5012568;28;20395;-83
2022/05/22 03:50:10;;;;;;;1.17;1.00;;;;;;;;;;5012525;28;20467;-82
2022/05/22 03:52:37;;;;;;;0.98;0.80;;;;;;;;;;4996657;28;20441;-82
2022/05/22 03:55:04;;;;;;;3.20;1.10;;;;;;;;;;5014959;28;20389;-83
2022/05/22 03:57:30;;;;;;;1.90;1.00;;;;;;;;;;5009787;28;20411;-83
2022/05/22 03:59:56;;;;;;;1.00;0.90;;;;;;;;;;5012258;28;20476;-83
2022/05/22 04:02:22;;;;;;;1.58;0.90;;;;;;;;;;5012294;28;20395;-82
2022/05/22 04:04:48;;;;;;;1.30;1.00;;;;;;;;;;5012508;28;20408;-83
2022/05/22 04:07:15;;;;;;;1.35;0.90;;;;;;;;;;5012355;28;20373;-84
2022/05/22 04:09:41;;;;;;;2.20;1.20;;;;;;;;;;5011566;28;20455;-83
2022/05/22 04:12:08;;;;;;;1.23;1.00;;;;;;;;;;5012457;28;20401;-83
2022/05/22 04:14:34;;;;;;;1.77;1.17;;;;;;;;;;5012351;28;20464;-83
2022/05/22 04:17:00;;;;;;;2.25;1.00;;;;;;;;;;5012263;28;20389;-81
2022/05/22 04:19:26;;;;;;;2.35;1.02;;;;;;;;;;5012381;28;20395;-82
2022/05/22 04:21:52;;;;;;;1.63;0.98;;;;;;;;;;5011942;28;20492;-82
2022/05/22 04:27:04;;;;;;;1.98;1.00;;;;;;;;;;5012166;28;20376;-82
2022/05/22 04:29:33;;;;;;;1.50;1.10;;;;;;;;;;5012375;28;20385;-83
2022/05/22 04:31:59;;;;;;;1.70;1.00;;;;;;;;;;5012204;28;20377;-83
2022/05/22 04:34:25;;;;;;;2.03;1.02;;;;;;;;;;5012152;28;20396;-82
2022/05/22 04:36:51;;;;;;;2.80;1.20;;;;;;;;;;5010105;28;20892;-82
2022/05/22 04:39:17;;;;;;;1.52;1.00;;;;;;;;;;5010320;28;20767;-82
2022/05/22 04:41:43;;;;;;;1.52;1.30;;;;;;;;;;5011975;28;20385;-82
2022/05/22 04:44:09;;;;;;;2.05;1.10;;;;;;;;;;5011945;28;20500;-82
2022/05/22 04:46:35;;;;;;;1.58;1.10;;;;;;;;;;5011108;28;20956;-82
2022/05/22 04:49:01;;;;;;;2.20;0.90;;;;;;;;;;5010572;28;20459;-82
2022/05/22 04:51:27;;;;;;;1.50;1.23;;;;;;;;;;5011377;28;20469;-82
2022/05/22 04:53:53;;;;;;;1.45;1.00;;;;;;;;;;5012011;28;20871;-82
2022/05/22 04:56:20;;;;;;;2.03;1.00;;;;;;;;;;5013138;28;20399;-82
2022/05/22 04:58:47;;;;;;;2.58;1.00;;;;;;;;;;5012217;28;20387;-82
2022/05/22 05:01:13;;;;;;;3.15;1.13;;;;;;;;;;5008742;28;20435;-82
2022/05/22 05:03:39;;;;;;;1.70;1.00;;;;;;;;;;5011850;28;20873;-83
2022/05/22 05:06:05;;;;;;;3.15;1.40;;;;;;;;;;5010503;28;20925;-82
2022/05/22 05:08:32;;;;;;;1.60;1.15;;;;;;;;;;5014048;28;20416;-82
2022/05/22 05:10:59;;;;;;;1.77;1.13;;;;;;;;;;5014088;28;20431;-82
2022/05/22 05:13:25;;;;;;;1.77;1.00;;;;;;;;;;5013854;28;20761;-83
2022/05/22 05:16:02;;;;;;;1.63;1.10;;;;;;;;;;5010932;28;20389;-83
2022/05/22 05:18:29;;;;;;;1.38;1.10;;;;;;;;;;5015144;28;20720;-82
2022/05/22 05:20:55;;;;;;;2.00;1.10;;;;;;;;;;5014890;28;20889;-82
2022/05/22 05:23:21;;;;;;;2.65;1.20;;;;;;;;;;5003622;28;20402;-82
2022/05/22 05:25:47;;;;;;;1.60;1.13;;;;;;;;;;5013876;28;20411;-83
2022/05/22 05:28:13;;;;;;;1.52;1.25;;;;;;;;;;5015028;28;20897;-83
2022/05/22 05:30:39;;;;;;;1.23;1.00;;;;;;;;;;5014957;28;20471;-83
2022/05/22 05:33:05;;;;;;;2.97;1.17;;;;;;;;;;5014839;28;20855;-83
2022/05/22 05:35:31;;;;;;;2.78;1.25;;;;;;;;;;5012655;28;20509;-83
2022/05/22 05:37:58;;;;;;;1.45;1.25;;;;;;;;;;5014582;28;20388;-82
2022/05/22 05:40:24;;;;;;;2.20;1.10;;;;;;;;;;5013889;28;20491;-79
2022/05/22 05:42:50;;;;;;;2.13;1.20;;;;;;;;;;5014424;28;20954;-80
2022/05/22 05:45:17;;;;;;;1.30;1.00;;;;;;;;;;5015997;28;20801;-80
2022/05/22 05:47:50;;;;;;;1.52;1.20;;;;;;;;;;5014847;28;20874;-80
2022/05/22 05:50:17;;;;;;;2.33;1.30;;;;;;;;;;5014715;28;20396;-79
2022/05/22 05:52:43;;;;;;;3.08;1.27;;;;;;;;;;5012830;28;20381;-80
2022/05/22 05:55:09;;;;;;;1.45;1.30;;;;;;;;;;5015738;28;20424;-80
2022/05/22 05:57:35;;;;;;;2.05;1.30;;;;;;;;;;5014517;28;20392;-79
2022/05/22 06:00:01;;;;;;;2.53;1.50;;;;;;;;;;5013455;28;20428;-79
2022/05/22 06:02:28;;;;;;;2.67;1.50;;;;;;;;;;5013315;28;20870;-79
2022/05/22 06:04:54;;;;;;;2.75;1.20;;;;;;;;;;5014356;28;20416;-80
2022/05/22 06:07:20;;;;;;;3.17;1.45;;;;;;;;;;5014116;28;20424;-79
2022/05/22 06:09:46;;;;;;;1.40;1.30;;;;;;;;;;5014252;28;20888;-80
2022/05/22 06:12:12;;;;;;;1.70;1.20;;;;;;;;;;5014088;28;20790;-81
2022/05/22 06:14:38;;;;;;;1.60;1.30;;;;;;;;;;5013249;28;20392;-81
2022/05/22 06:17:05;;;;;;;4.82;1.60;;;;;;;;;;5014083;28;20408;-80
2022/05/22 06:22:16;;;;;;;1.65;1.27;;;;;;;;;;5011419;28;20396;-82
2022/05/22 06:24:43;;;;;;;2.50;1.23;;;;;;;;;;5013936;28;20405;-81
2022/05/22 06:27:09;;;;;;;1.80;1.20;;;;;;;;;;5013834;28;20377;-82
2022/05/22 06:29:35;;;;;;;2.15;1.30;;;;;;;;;;5013944;28;20377;-80
2022/05/22 06:32:01;;;;;;;3.10;1.52;;;;;;;;;;5012758;28;20381;-80
2022/05/22 06:34:27;;;;;;;2.90;1.27;;;;;;;;;;5013878;28;20896;-80
2022/05/22 06:36:53;;;;;;;2.27;1.33;;;;;;;;;;5013624;28;20473;-80
2022/05/22 06:42:04;;;;;;;1.50;1.05;;;;;;;;;;5013700;28;20484;-80
2022/05/22 06:44:30;;;;;;;1.95;1.30;;;;;;;;;;5013540;28;20411;-80
2022/05/22 06:46:56;;;;;;;2.33;1.30;;;;;;;;;;5013645;28;20460;-81
2022/05/22 06:49:22;;;;;;;1.48;1.15;;;;;;;;;;5012715;28;20869;-81
2022/05/22 06:51:48;;;;;;;2.55;1.40;;;;;;;;;;4997573;28;20409;-81
2022/05/22 06:54:14;;;;;;;2.85;1.50;;;;;;;;;;5001985;28;20463;-81
2022/05/22 06:56:40;;;;;;;1.70;1.10;;;;;;;;;;5012241;28;20941;-81
2022/05/22 06:59:06;;;;;;;2.90;1.13;;;;;;;;;;5004399;28;20492;-81
2022/05/22 07:01:32;;;;;;;3.25;1.20;;;;;;;;;;5009229;28;20411;-81
2022/05/22 07:03:58;;;;;;;2.50;1.50;;;;;;;;;;4999882;28;20385;-81
2022/05/22 07:06:24;;;;;;;2.03;1.20;;;;;;;;;;5005242;28;20509;-80
2022/05/22 07:08:50;;;;;;;2.15;1.33;;;;;;;;;;5008435;28;20488;-81
2022/05/22 07:14:00;;;;;;;1.92;1.17;;;;;;;;;;5013389;28;20866;-81
2022/05/22 07:16:26;;;;;;;2.38;1.38;;;;;;;;;;5012788;28;20389;-82
2022/05/22 07:18:52;;;;;;;1.70;1.00;;;;;;;;;;5012018;28;20388;-82
2022/05/22 07:21:19;;;;;;;2.50;1.30;;;;;;;;;;5012752;28;20393;-82
2022/05/22 07:23:45;;;;;;;2.17;1.20;;;;;;;;;;5011192;28;20413;-82
2022/05/22 07:26:12;;;;;;;1.70;1.27;;;;;;;;;;5011626;28;20407;-82
2022/05/22 07:28:38;;;;;;;1.35;1.08;;;;;;;;;;5011705;28;20392;-82
2022/05/22 07:31:04;;;;;;;1.73;1.20;;;;;;;;;;5011411;28;20472;-82
2022/05/22 07:33:30;;;;;;;2.25;1.45;;;;;;;;;;5012302;28;20843;-81
2022/05/22 07:35:57;;;;;;;2.15;1.15;;;;;;;;;;5011298;28;20724;-81
2022/05/22 07:38:24;;;;;;;2.15;1.40;;;;;;;;;;5012715;28;20416;-81
2022/05/22 07:40:50;;;;;;;1.85;1.35;;;;;;;;;;5014822;28;20385;-81
2022/05/22 07:43:16;;;;;;;2.33;1.27;;;;;;;;;;5004403;28;20396;-81
2022/05/22 07:45:42;;;;;;;1.92;1.10;;;;;;;;;;5010775;28;20782;-80
2022/05/22 07:48:08;;;;;;;1.75;1.60;;;;;;;;;;5012636;28;20436;-81
2022/05/22 07:50:35;;;;;;;2.90;1.40;;;;;;;;;;5012440;28;20391;-82
2022/05/22 07:53:01;;;;;;;1.75;1.48;;;;;;;;;;5014955;28;20452;-81
2022/05/22 07:55:27;;;;;;;3.20;1.30;;;;;;;;;;5012005;28;20885;-82
2022/05/22 07:57:53;;;;;;;2.50;1.60;;;;;;;;;;5005555;28;20896;-82
2022/05/22 08:00:21;;;;;;;2.15;1.42;;;;;;;;;;5011500;28;20416;-82
2022/05/22 08:02:47;;;;;;;1.45;1.10;;;;;;;;;;5007919;28;20398;-83
2022/05/22 08:05:14;;;;;;;1.73;1.47;;;;;;;;;;5009895;28;20865;-82
2022/05/22 08:07:41;;;;;;;2.80;1.85;;;;;;;;;;5006095;28;20860;-82
2022/05/22 08:10:08;;;;;;;4.00;2.75;;;;;;;;;;5008119;28;20384;-82
2022/05/22 08:12:38;;;;;;;2.45;2.25;;;;;;;;;;5012272;28;20456;-82
2022/05/22 08:15:04;;;;;;;3.33;1.75;;;;;;;;;;5012287;28;20854;-84
2022/05/22 08:17:35;;;;;;;2.97;1.60;;;;;;;;;;5012476;28;20381;-83
2022/05/22 08:20:02;;;;;;;2.42;1.60;;;;;;;;;;5010022;28;20392;-84
2022/05/22 08:22:28;;;;;;;3.95;1.77;;;;;;;;;;5008156;28;20405;-83
2022/05/22 08:24:54;;;;;;;2.67;1.60;;;;;;;;;;5010195;28;20508;-82
2022/05/22 08:27:20;;;;;;;2.33;1.70;;;;;;;;;;5013823;28;20550;-83
2022/05/22 08:29:46;;;;;;;2.90;1.43;;;;;;;;;;5009976;28;20377;-82
2022/05/22 08:32:12;;;;;;;3.07;1.67;;;;;;;;;;5016002;28;20854;-84
2022/05/22 08:34:38;;;;;;;2.70;1.50;;;;;;;;;;5010080;28;20389;-85
2022/05/22 08:37:04;;;;;;;3.00;1.67;;;;;;;;;;5023865;28;20484;-84
2022/05/22 08:39:31;;;;;;;2.45;1.40;;;;;;;;;;5001395;28;20405;-84
2022/05/22 08:41:59;;;;;;;2.17;1.30;;;;;;;;;;5004554;28;20869;-84
2022/05/22 08:44:34;;;;;;;2.05;1.38;;;;;;;;;;5011050;28;20858;-85
2022/05/22 08:47:03;;;;;;;5.73;1.70;;;;;;;;;;5007224;28;20460;-82
2022/05/22 08:49:36;;;;;;;2.63;1.40;;;;;;;;;;5015727;28;20430;-83
2022/05/22 08:52:17;;;;;;;2.45;1.52;;;;;;;;;;5015528;28;20404;-81
2022/05/22 08:54:44;;;;;;;2.80;1.30;;;;;;;;;;5001353;28;20392;-84
2022/05/22 09:00:14;;;;;;;1.70;1.30;;;;;;;;;;4999413;28;20383;-83
2022/05/22 09:02:41;;;;;;;2.30;1.40;;;;;;;;;;5009608;28;20389;-82
2022/05/22 09:05:07;;;;;;;2.90;1.48;;;;;;;;;;5007638;28;20441;-82
2022/05/22 09:07:38;;;;;;;2.75;1.40;;;;;;;;;;5006020;28;20854;-83
2022/05/22 09:10:06;;;;;;;2.70;1.50;;;;;;;;;;5006390;28;20414;-84
2022/05/22 09:12:32;;;;;;;3.85;1.40;;;;;;;;;;5000877;28;20376;-82
2022/05/22 09:15:13;;;;;;;1.88;1.20;;;;;;;;;;4996412;28;20816;-83
2022/05/22 09:17:45;;;;;;;1.45;1.35;;;;;;;;;;5003262;28;20408;-84
2022/05/22 09:20:17;;;;;;;1.70;1.30;;;;;;;;;;5006897;28;20492;-81
2022/05/22 09:22:46;;;;;;;4.78;1.55;;;;;;;;;;5011570;28;20397;-83
2022/05/22 09:25:15;;;;;;;3.55;1.30;;;;;;;;;;5005152;28;20418;-82
2022/05/22 09:27:53;;;;;;;2.25;1.52;;;;;;;;;;4999911;28;20371;-82
2022/05/22 09:30:26;;;;;;;4.00;3.47;;;;;;;;;;5014018;28;20377;-81
2022/05/22 09:32:57;;;;;;;3.25;2.58;;;;;;;;;;5013890;28;20385;-82
2022/05/22 09:35:46;;;;;;;2.13;1.20;;;;;;;;;;5014720;28;20388;-82
2022/05/22 09:38:18;;;;;;;2.03;1.17;;;;;;;;;;5014901;28;20380;-82
2022/05/22 09:40:46;;;;;;;1.80;1.10;;;;;;;;;;5014720;28;20858;-82
2022/05/22 09:43:21;;;;;;;2.00;1.08;;;;;;;;;;5015862;28;20386;-82
2022/05/22 09:45:59;;;;;;;2.10;1.10;;;;;;;;;;5014861;28;20412;-82
2022/05/22 09:48:37;;;;;;;2.60;1.10;;;;;;;;;;5014654;28;20447;-82
2022/05/22 09:51:08;;;;;;;1.23;0.93;;;;;;;;;;5011186;28;20395;-82
2022/05/22 09:53:34;;;;;;;1.30;0.90;;;;;;;;;;5014575;28;20389;-82
2022/05/22 09:56:06;;;;;;;1.45;0.90;;;;;;;;;;5014437;28;20401;-82
2022/05/22 09:58:45;;;;;;;3.65;0.90;;;;;;;;;;5014556;28;20392;-82
2022/05/22 10:01:24;;;;;;;1.67;1.00;;;;;;;;;;5016832;28;20419;-82
2022/05/22 10:04:09;;;;;;;3.00;1.00;;;;;;;;;;5000669;28;20463;-83
2022/05/22 10:07:05;;;;;;;2.38;0.80;;;;;;;;;;5013988;28;20928;-83
2022/05/22 10:09:39;;;;;;;1.15;0.70;;;;;;;;;;5014291;28;20438;-82
2022/05/22 10:12:30;;;;;;;1.23;0.70;;;;;;;;;;5014172;28;20385;-82
2022/05/22 10:14:56;;;;;;;2.20;0.90;;;;;;;;;;5014376;28;20459;-82
2022/05/22 10:17:23;;;;;;;0.80;0.70;;;;;;;;;;5014080;28;20419;-83
2022/05/22 10:19:58;;;;;;;2.10;0.63;;;;;;;;;;5014101;28;20447;-83
2022/05/22 10:22:24;;;;;;;4.28;3.28;;;;;;;;;;5013575;28;20392;-82
2022/05/22 10:25:02;;;;;;;3.30;2.30;;;;;;;;;;5011349;28;21371;-82
2022/05/22 10:27:37;;;;;;;2.30;0.80;;;;;;;;;;5012522;28;20861;-83
2022/05/22 10:30:06;;;;;;;2.10;1.00;;;;;;;;;;5013920;28;20408;-83
2022/05/22 10:32:37;;;;;;;1.67;0.80;;;;;;;;;;5013764;28;20381;-82
2022/05/22 10:35:07;;;;;;;1.13;0.70;;;;;;;;;;5013868;28;20381;-82
2022/05/22 10:37:37;;;;;;;1.88;0.70;;;;;;;;;;5013479;28;20385;-82
2022/05/22 10:40:05;;;;;;;1.13;0.70;;;;;;;;;;5013785;28;20384;-82
2022/05/22 10:42:49;;;;;;;1.17;0.80;;;;;;;;;;5013457;28;20888;-82
2022/05/22 10:45:21;;;;;;;1.00;0.90;;;;;;;;;;5013866;28;20415;-82
2022/05/22 10:47:47;;;;;;;1.73;1.00;;;;;;;;;;5013449;28;20392;-82
2022/05/22 10:50:19;;;;;;;1.57;0.90;;;;;;;;;;5013675;28;20862;-82
2022/05/22 10:52:46;;;;;;;3.45;0.80;;;;;;;;;;5013284;28;20373;-82
2022/05/22 10:55:19;;;;;;;2.38;1.10;;;;;;;;;;5013533;28;20416;-82
2022/05/22 10:57:53;;;;;;;1.83;0.90;;;;;;;;;;5013670;28;20389;-82
2022/05/22 11:00:19;;;;;;;1.52;0.93;;;;;;;;;;5013341;28;20388;-82
2022/05/22 11:02:45;;;;;;;2.60;0.90;;;;;;;;;;5013260;28;20472;-82
2022/05/22 11:05:28;;;;;;;1.27;1.00;;;;;;;;;;5007940;28;20484;-82
2022/05/22 11:07:55;;;;;;;2.50;1.10;;;;;;;;;;5012991;28;20463;-83
2022/05/22 11:10:23;;;;;;;1.55;1.20;;;;;;;;;;5013131;28;20377;-82
2022/05/22 11:13:09;;;;;;;1.45;1.10;;;;;;;;;;5013179;28;20434;-82
2022/05/22 11:15:37;;;;;;;1.00;0.90;;;;;;;;;;5013047;28;20385;-83
2022/05/22 11:18:06;;;;;;;1.70;1.00;;;;;;;;;;5013072;28;20388;-83
2022/05/22 11:20:32;;;;;;;2.67;1.00;;;;;;;;;;5012939;28;20389;-82
2022/05/22 11:23:17;;;;;;;1.70;0.90;;;;;;;;;;5012732;28;20912;-83
2022/05/22 11:25:59;;;;;;;1.80;0.97;;;;;;;;;;5012954;28;20420;-83
2022/05/22 11:28:28;;;;;;;2.20;1.00;;;;;;;;;;5012992;28;20440;-83
2022/05/22 11:31:13;;;;;;;2.42;0.93;;;;;;;;;;5012790;28;20385;-83
2022/05/22 11:33:46;;;;;;;2.05;1.00;;;;;;;;;;5012833;28;20380;-83
2022/05/22 11:36:21;;;;;;;1.17;0.98;;;;;;;;;;5012650;28;20421;-84
2022/05/22 11:38:52;;;;;;;1.55;1.10;;;;;;;;;;5015328;28;20423;-83
2022/05/22 11:41:18;;;;;;;2.17;1.00;;;;;;;;;;4999522;28;20403;-84
2022/05/22 11:43:45;;;;;;;1.95;1.20;;;;;;;;;;5012741;28;20851;-85
2022/05/22 11:46:33;;;;;;;2.00;0.90;;;;;;;;;;5012566;28;20817;-84
2022/05/22 11:48:59;;;;;;;2.05;0.90;;;;;;;;;;5012544;28;20380;-84
2022/05/22 11:51:31;;;;;;;1.70;1.20;;;;;;;;;;5012309;28;20905;-85
2022/05/22 11:53:57;;;;;;;1.95;1.20;;;;;;;;;;5013367;28;20800;-85
2022/05/22 11:56:26;;;;;;;1.30;0.90;;;;;;;;;;5012473;28;20377;-86
2022/05/22 11:59:20;;;;;;;2.60;1.00;;;;;;;;;;5009207;28;20382;-85
2022/05/22 12:01:59;;;;;;;3.30;1.10;;;;;;;;;;5012338;28;20850;-85
2022/05/22 12:04:44;;;;;;;1.58;1.00;;;;;;;;;;5012398;28;20785;-84
2022/05/22 12:07:22;;;;;;;1.80;0.90;;;;;;;;;;5012373;28;20739;-84
2022/05/22 12:10:09;;;;;;;2.05;1.00;;;;;;;;;;5012303;28;20376;-84
2022/05/22 12:12:35;;;;;;;1.65;1.00;;;;;;;;;;5013129;28;20874;-84
2022/05/22 12:15:08;;;;;;;1.52;1.17;;;;;;;;;;5012674;28;20384;-84
2022/05/22 12:17:34;;;;;;;1.38;1.00;;;;;;;;;;5015089;28;20470;-84
2022/05/22 12:20:13;;;;;;;1.73;1.00;;;;;;;;;;5016296;28;20392;-84
2022/05/22 12:23:08;;;;;;;1.20;0.85;;;;;;;;;;5012653;28;20397;-84
2022/05/22 12:25:35;;;;;;;1.25;0.88;;;;;;;;;;5011190;28;20507;-84
2022/05/22 12:28:19;;;;;;;1.85;0.73;;;;;;;;;;5015042;28;20384;-83
2022/05/22 12:30:46;;;;;;;1.02;0.80;;;;;;;;;;5016205;28;20377;-84
2022/05/22 12:33:13;;;;;;;1.35;0.73;;;;;;;;;;5016099;28;20385;-84
2022/05/22 12:35:40;;;;;;;1.20;0.90;;;;;;;;;;5015940;28;20769;-84
2022/05/22 12:38:07;;;;;;;1.92;1.00;;;;;;;;;;5015833;28;20381;-84
2022/05/22 12:40:36;;;;;;;1.38;0.82;;;;;;;;;;5015879;28;20380;-83
2022/05/22 12:43:04;;;;;;;1.60;0.93;;;;;;;;;;5015776;28;20384;-85
2022/05/22 12:45:30;;;;;;;1.75;1.00;;;;;;;;;;5015814;28;20412;-83
2022/05/22 12:48:09;;;;;;;1.17;1.00;;;;;;;;;;5015744;28;20384;-84
2022/05/22 12:50:35;;;;;;;1.85;0.80;;;;;;;;;;5015801;28;20379;-83
2022/05/22 12:53:01;;;;;;;2.30;0.88;;;;;;;;;;5015511;28;20746;-84
2022/05/22 12:55:30;;;;;;;1.27;0.95;;;;;;;;;;5015506;28;20901;-84
2022/05/22 12:58:06;;;;;;;1.60;1.10;;;;;;;;;;5015569;28;20885;-85
2022/05/22 13:00:32;;;;;;;2.28;1.10;;;;;;;;;;5015821;28;20376;-84
2022/05/22 13:03:30;;;;;;;1.65;1.00;;;;;;;;;;5015768;28;20968;-84
2022/05/22 13:06:00;;;;;;;1.70;1.13;;;;;;;;;;4984209;28;20433;-84
2022/05/22 13:08:33;;;;;;;2.30;1.10;;;;;;;;;;5011595;28;20454;-85
2022/05/22 13:11:00;;;;;;;2.00;1.10;;;;;;;;;;5015385;28;20784;-85
2022/05/22 13:13:28;;;;;;;1.83;0.90;;;;;;;;;;5013323;28;20442;-85
2022/05/22 13:16:14;;;;;;;1.30;0.93;;;;;;;;;;5008699;28;20386;-84
2022/05/22 13:18:48;;;;;;;2.60;0.90;;;;;;;;;;5004143;28;20871;-82
2022/05/22 13:21:27;;;;;;;3.30;1.00;;;;;;;;;;5014943;28;20420;-84
2022/05/22 13:24:01;;;;;;;2.70;1.00;;;;;;;;;;5015172;28;20862;-85
2022/05/22 13:26:29;;;;;;;1.55;1.02;;;;;;;;;;5015205;28;20400;-85
2022/05/22 13:29:15;;;;;;;1.20;1.00;;;;;;;;;;5014276;28;20388;-86
2022/05/22 13:31:43;;;;;;;1.25;0.90;;;;;;;;;;5013538;28;20861;-85
2022/05/22 13:34:13;;;;;;;1.05;0.93;;;;;;;;;;5015017;28;20389;-85
2022/05/22 13:36:56;;;;;;;1.50;0.70;;;;;;;;;;5013378;28;20397;-83
2022/05/22 13:39:28;;;;;;;1.10;0.80;;;;;;;;;;5017023;28;20391;-86
2022/05/22 13:41:57;;;;;;;1.17;0.90;;;;;;;;;;5008628;28;20432;-83
2022/05/22 13:44:26;;;;;;;1.50;1.30;;;;;;;;;;5011757;28;20758;-83
2022/05/22 13:47:06;;;;;;;1.55;0.88;;;;;;;;;;5011664;28;20377;-83
2022/05/22 13:49:50;;;;;;;2.42;0.90;;;;;;;;;;5009306;28;20381;-83
2022/05/22 13:52:37;;;;;;;1.75;0.90;;;;;;;;;;5007245;28;20392;-83
2022/05/22 13:55:12;;;;;;;2.15;0.85;;;;;;;;;;5014062;28;20380;-83
2022/05/22 13:57:49;;;;;;;1.85;1.10;;;;;;;;;;5013609;28;20412;-82
2022/05/22 14:00:20;;;;;;;3.00;1.10;;;;;;;;;;5013799;28;20810;-82
2022/05/22 14:02:52;;;;;;;1.30;1.20;;;;;;;;;;5014334;28;20778;-85
2022/05/22 14:05:19;;;;;;;1.15;0.70;;;;;;;;;;5007113;28;20413;-85
2022/05/22 14:07:49;;;;;;;1.95;0.88;;;;;;;;;;5011373;28;20468;-87
2022/05/22 14:10:17;;;;;;;1.65;0.90;;;;;;;;;;5009601;28;20472;-87
2022/05/22 14:12:44;;;;;;;1.08;0.80;;;;;;;;;;5009850;28;20422;-84
2022/05/22 14:15:21;;;;;;;1.13;0.70;;;;;;;;;;5019521;28;20400;-83
2022/05/22 14:17:48;;;;;;;1.40;0.90;;;;;;;;;;5013137;28;20384;-85
2022/05/22 14:20:21;;;;;;;2.88;1.00;;;;;;;;;;5005204;28;20464;-83
2022/05/22 14:23:07;;;;;;;1.20;0.90;;;;;;;;;;5010620;28;20833;-83
2022/05/22 14:25:35;;;;;;;1.08;0.93;;;;;;;;;;5001355;28;20460;-84
2022/05/22 14:28:03;;;;;;;2.00;1.00;;;;;;;;;;5006580;28;21055;-84
2022/05/22 14:30:34;;;;;;;1.07;0.80;;;;;;;;;;5011951;28;20420;-83
2022/05/22 14:33:12;;;;;;;1.05;0.70;;;;;;;;;;5008271;28;20446;-84
2022/05/22 14:35:40;;;;;;;1.58;0.80;;;;;;;;;;5012813;28;20388;-82
2022/05/22 14:38:09;;;;;;;1.80;0.70;;;;;;;;;;5013604;28;20460;-82
2022/05/22 14:40:40;;;;;;;1.67;0.90;;;;;;;;;;5012663;28;20431;-82
2022/05/22 14:43:07;;;;;;;1.48;0.90;;;;;;;;;;5012640;28;20471;-82
2022/05/22 14:45:35;;;;;;;1.17;0.70;;;;;;;;;;5013014;28;20830;-81
2022/05/22 14:48:06;;;;;;;1.75;0.90;;;;;;;;;;5011024;28;20391;-82
2022/05/22 14:50:32;;;;;;;1.20;1.00;;;;;;;;;;5008904;28;20381;-82
2022/05/22 14:53:04;;;;;;;1.47;0.80;;;;;;;;;;5013191;28;20388;-82
2022/05/22 14:55:38;;;;;;;2.30;0.90;;;;;;;;;;5012171;28;20767;-83
2022/05/22 14:58:07;;;;;;;3.08;1.00;;;;;;;;;;5013317;28;20400;-82
2022/05/22 15:00:42;;;;;;;1.90;0.80;;;;;;;;;;5070091;28;20337;-83
2022/05/22 15:03:14;;;;;;;2.28;1.08;;;;;;;;;;5069491;28;20380;-83
2022/05/22 15:05:42;;;;;;;2.00;0.90;;;;;;;;;;5069609;28;20373;-82
2022/05/22 15:08:20;;;;;;;1.60;0.90;;;;;;;;;;5069302;28;20411;-83
2022/05/22 15:10:46;;;;;;;1.38;0.88;;;;;;;;;;5069413;28;20384;-82
2022/05/22 15:13:31;;;;;;;2.40;1.00;;;;;;;;;;5069309;28;20565;-82
2022/05/22 15:16:16;;;;;;;2.30;0.90;;;;;;;;;;5069334;28;20377;-82